Wetterdaten: Woche 07.08.06 - 13.08.06 (KW32)
Datum Zeit Temperatur Luftfeuchte Luftdruck Niederschlag Wind Richtung Sonnenschein UV-Strahlung Solar Taupunkt Windchill Windben
07.08.2006 00:00 14.8 C 92 % 1019.2 hPa 0.0 l/m 2.1 km/h (1 Bft) S-SO 0.00 h 0.0 UV-I 0 W/m 13.6 C 14.8 C 4.3 km/h (1 Bft)
07.08.2006 01:00 14.7 C 93 % 1018.9 hPa 0.0 l/m 2.2 km/h (1 Bft) S-SO 0.00 h 0.0 UV-I 0 W/m 13.6 C 14.7 C 4.8 km/h (1 Bft)
07.08.2006 02:00 14.7 C 93 % 1018.6 hPa 0.0 l/m 1.7 km/h (1 Bft) S-SO 0.00 h 0.0 UV-I 0 W/m 13.6 C 14.7 C 4.3 km/h (1 Bft)
07.08.2006 03:00 14.7 C 93 % 1018.2 hPa 0.0 l/m 3.2 km/h (1 Bft) S-SO 0.00 h 0.0 UV-I 0 W/m 13.6 C 14.7 C 6.1 km/h (2 Bft)
07.08.2006 04:00 14.7 C 93 % 1017.8 hPa 0.0 l/m 3.6 km/h (1 Bft) S-SO 0.00 h 0.0 UV-I 0 W/m 13.6 C 14.7 C 6.8 km/h (2 Bft)
07.08.2006 05:00 14.6 C 94 % 1017.7 hPa 0.0 l/m 2.9 km/h (1 Bft) S-SO 0.00 h 0.0 UV-I 0 W/m 13.6 C 14.6 C 5.8 km/h (2 Bft)
07.08.2006 06:00 14.4 C 95 % 1017.7 hPa 0.2 l/m 2.9 km/h (1 Bft) S-SO 0.00 h 0.0 UV-I 8 W/m 13.6 C 14.4 C 6.2 km/h (2 Bft)
07.08.2006 07:00 14.5 C 94 % 1017.7 hPa 0.0 l/m 2.4 km/h (1 Bft) S-SO 0.00 h 0.0 UV-I 21 W/m 13.6 C 14.5 C 5.1 km/h (1 Bft)
07.08.2006 08:00 14.9 C 93 % 1017.8 hPa 0.0 l/m 3.1 km/h (1 Bft) S-SO 0.00 h 0.6 UV-I 65 W/m 13.9 C 14.9 C 6.4 km/h (2 Bft)
07.08.2006 09:00 15.1 C 92 % 1018.0 hPa 0.0 l/m 2.6 km/h (1 Bft) S 0.00 h 0.6 UV-I 55 W/m 13.8 C 15.1 C 6.1 km/h (2 Bft)
07.08.2006 10:00 16.0 C 89 % 1017.9 hPa 0.0 l/m 3.3 km/h (1 Bft) W-SW 0.25 h 2.6 UV-I 286 W/m 14.2 C 16.0 C 7.0 km/h (2 Bft)
07.08.2006 11:00 18.7 C 81 % 1017.5 hPa 0.0 l/m 4.6 km/h (1 Bft) S 0.88 h 5.5 UV-I 653 W/m 15.3 C 18.7 C 9.0 km/h (2 Bft)
07.08.2006 12:00 20.1 C 76 % 1016.9 hPa 0.0 l/m 6.0 km/h (2 Bft) S-SO 0.98 h 7.0 UV-I 773 W/m 15.8 C 20.1 C 11.6 km/h (2 Bft)
07.08.2006 13:00 21.3 C 72 % 1016.4 hPa 0.0 l/m 6.1 km/h (2 Bft) S-SO 1.00 h 7.5 UV-I 783 W/m 16.1 C 21.3 C 11.6 km/h (2 Bft)
07.08.2006 14:00 22.8 C 67 % 1015.7 hPa 0.0 l/m 5.9 km/h (2 Bft) S-SO 1.00 h 7.1 UV-I 787 W/m 16.5 C 22.8 C 11.1 km/h (2 Bft)
07.08.2006 15:00 24.3 C 60 % 1015.1 hPa 0.0 l/m 4.7 km/h (1 Bft) W-SW 1.00 h 5.8 UV-I 766 W/m 16.1 C 24.3 C 8.9 km/h (2 Bft)
07.08.2006 16:00 24.4 C 50 % 1014.8 hPa 0.0 l/m 7.0 km/h (2 Bft) W-NW 0.62 h 3.5 UV-I 502 W/m 13.3 C 24.4 C 11.2 km/h (2 Bft)
07.08.2006 17:00 23.0 C 53 % 1014.7 hPa 0.0 l/m 5.0 km/h (1 Bft) W 0.02 h 1.5 UV-I 203 W/m 12.8 C 23.0 C 8.5 km/h (2 Bft)
07.08.2006 18:00 23.1 C 53 % 1014.6 hPa 0.0 l/m 4.8 km/h (1 Bft) W-NW 0.33 h 0.9 UV-I 209 W/m 13.0 C 23.1 C 8.1 km/h (2 Bft)
07.08.2006 19:00 22.1 C 57 % 1014.6 hPa 0.0 l/m 1.7 km/h (1 Bft) W 0.02 h 0.5 UV-I 70 W/m 13.1 C 22.1 C 3.7 km/h (1 Bft)
07.08.2006 20:00 21.0 C 66 % 1014.8 hPa 0.0 l/m 2.5 km/h (1 Bft) O-SO 0.00 h 0.0 UV-I 21 W/m 14.5 C 21.0 C 4.1 km/h (1 Bft)
07.08.2006 21:00 18.8 C 78 % 1015.4 hPa 0.0 l/m 2.2 km/h (1 Bft) O-SO 0.00 h 0.0 UV-I 0 W/m 14.9 C 18.8 C 3.6 km/h (1 Bft)
07.08.2006 22:00 17.1 C 86 % 1015.6 hPa 0.0 l/m 1.7 km/h (1 Bft) SO 0.00 h 0.0 UV-I 0 W/m 14.8 C 17.1 C 2.6 km/h (1 Bft)
07.08.2006 23:00 15.9 C 88 % 1015.6 hPa 0.0 l/m 3.5 km/h (1 Bft) SO 0.00 h 0.0 UV-I 0 W/m 13.9 C 15.9 C 4.9 km/h (1 Bft)
08.08.2006 00:00 14.9 C 91 % 1015.6 hPa 0.0 l/m 1.3 km/h (1 Bft) O-SO 0.00 h 0.0 UV-I 0 W/m 13.5 C 14.9 C 2.2 km/h (1 Bft)
08.08.2006 01:00 14.1 C 95 % 1015.4 hPa 0.0 l/m 0.4 km/h (0 Bft) O-SO 0.00 h 0.0 UV-I 0 W/m 13.3 C 14.1 C 1.2 km/h (1 Bft)
08.08.2006 02:00 13.5 C 96 % 1015.2 hPa 0.0 l/m 0.0 km/h (0 Bft) N 0.00 h 0.0 UV-I 0 W/m 12.8 C 13.5 C 0.1 km/h (0 Bft)
08.08.2006 03:00 12.9 C 97 % 1014.8 hPa 0.0 l/m 0.8 km/h (0 Bft) O-SO 0.00 h 0.0 UV-I 0 W/m 12.4 C 12.9 C 1.7 km/h (1 Bft)
08.08.2006 04:00 12.4 C 97 % 1014.6 hPa 0.0 l/m 0.1 km/h (0 Bft) O-SO 0.00 h 0.0 UV-I 0 W/m 11.9 C 12.4 C 0.3 km/h (0 Bft)
08.08.2006 05:00 11.8 C 98 % 1014.6 hPa 0.0 l/m 0.6 km/h (0 Bft) O-SO 0.00 h 0.0 UV-I 0 W/m 11.5 C 11.8 C 1.4 km/h (1 Bft)
08.08.2006 06:00 11.8 C 98 % 1014.4 hPa 0.0 l/m 0.5 km/h (0 Bft) O-SO 0.05 h 0.0 UV-I 18 W/m 11.5 C 11.8 C 1.5 km/h (1 Bft)
08.08.2006 07:00 12.1 C 97 % 1014.6 hPa 0.0 l/m 0.0 km/h (0 Bft) N 0.27 h 0.6 UV-I 79 W/m 11.7 C 12.1 C 0.1 km/h (0 Bft)
08.08.2006 08:00 13.9 C 92 % 1014.7 hPa 0.0 l/m 0.3 km/h (0 Bft) O-SO 1.00 h 1.1 UV-I 261 W/m 12.6 C 13.9 C 0.8 km/h (0 Bft)
08.08.2006 09:00 16.1 C 82 % 1014.8 hPa 0.0 l/m 0.8 km/h (0 Bft) N 1.00 h 2.2 UV-I 418 W/m 13.1 C 16.1 C 2.0 km/h (1 Bft)
08.08.2006 10:00 18.7 C 71 % 1014.4 hPa 0.0 l/m 2.8 km/h (1 Bft) N-NW 1.00 h 3.9 UV-I 582 W/m 13.3 C 18.7 C 4.7 km/h (1 Bft)
08.08.2006 11:00 21.2 C 64 % 1014.1 hPa 0.0 l/m 3.2 km/h (1 Bft) W-NW 1.00 h 5.7 UV-I 699 W/m 14.0 C 21.2 C 5.0 km/h (1 Bft)
08.08.2006 12:00 23.4 C 52 % 1013.6 hPa 0.0 l/m 4.4 km/h (1 Bft) O-SO 1.00 h 7.1 UV-I 792 W/m 13.1 C 23.4 C 6.9 km/h (2 Bft)
08.08.2006 13:00 24.2 C 51 % 1013.1 hPa 0.0 l/m 4.8 km/h (1 Bft) W-NW 0.77 h 5.9 UV-I 640 W/m 13.5 C 24.2 C 7.6 km/h (2 Bft)
08.08.2006 14:00 22.4 C 57 % 1013.1 hPa 0.0 l/m 10.0 km/h (2 Bft) W-NW 0.03 h 2.8 UV-I 249 W/m 13.4 C 22.4 C 14.9 km/h (3 Bft)
08.08.2006 15:00 22.9 C 59 % 1013.1 hPa 0.0 l/m 6.0 km/h (2 Bft) W-NW 0.20 h 3.5 UV-I 362 W/m 14.4 C 22.9 C 9.2 km/h (2 Bft)
08.08.2006 16:00 21.6 C 67 % 1013.1 hPa 0.2 l/m 8.0 km/h (2 Bft) N 0.17 h 2.0 UV-I 242 W/m 15.1 C 21.6 C 12.9 km/h (3 Bft)
08.08.2006 17:00 18.6 C 86 % 1013.8 hPa 0.0 l/m 3.5 km/h (1 Bft) W-NW 0.00 h 0.8 UV-I 85 W/m 16.2 C 18.6 C 6.2 km/h (2 Bft)
08.08.2006 18:00 18.5 C 78 % 1014.1 hPa 0.0 l/m 4.0 km/h (1 Bft) N 0.00 h 0.6 UV-I 60 W/m 14.7 C 18.5 C 7.5 km/h (2 Bft)
08.08.2006 19:00 18.2 C 87 % 1014.0 hPa 0.0 l/m 1.4 km/h (1 Bft) N-NW 0.03 h 0.5 UV-I 82 W/m 15.9 C 18.2 C 2.9 km/h (1 Bft)
08.08.2006 20:00 18.0 C 87 % 1014.0 hPa 0.0 l/m 1.3 km/h (1 Bft) N-NW 0.47 h 0.0 UV-I 32 W/m 15.8 C 18.0 C 3.0 km/h (1 Bft)
08.08.2006 21:00 17.7 C 80 % 1014.6 hPa 0.0 l/m 4.2 km/h (1 Bft) N-NO 0.00 h 0.0 UV-I 0 W/m 14.2 C 17.7 C 8.3 km/h (2 Bft)
08.08.2006 22:00 17.2 C 80 % 1014.8 hPa 0.0 l/m 3.5 km/h (1 Bft) NO 0.00 h 0.0 UV-I 0 W/m 13.7 C 17.2 C 7.0 km/h (2 Bft)
08.08.2006 23:00 16.9 C 80 % 1014.8 hPa 0.0 l/m 1.7 km/h (1 Bft) N 0.00 h 0.0 UV-I 0 W/m 13.4 C 16.9 C 3.9 km/h (1 Bft)
09.08.2006 00:00 16.6 C 84 % 1014.9 hPa 0.0 l/m 0.3 km/h (0 Bft) W-NW 0.00 h 0.0 UV-I 0 W/m 13.9 C 16.6 C 0.8 km/h (0 Bft)
09.08.2006 01:00 16.2 C 87 % 1014.8 hPa 0.0 l/m 0.8 km/h (0 Bft) SO 0.00 h 0.0 UV-I 0 W/m 13.9 C 16.2 C 1.9 km/h (1 Bft)
09.08.2006 02:00 15.5 C 90 % 1014.5 hPa 0.0 l/m 0.1 km/h (0 Bft) SO 0.00 h 0.0 UV-I 0 W/m 13.9 C 15.5 C 0.4 km/h (0 Bft)
09.08.2006 03:00 15.2 C 93 % 1014.1 hPa 0.0 l/m 0.0 km/h (0 Bft) N 0.00 h 0.0 UV-I 0 W/m 14.0 C 15.2 C 0.6 km/h (0 Bft)
09.08.2006 04:00 14.2 C 95 % 1014.0 hPa 0.0 l/m 0.5 km/h (0 Bft) SO 0.00 h 0.0 UV-I 0 W/m 13.4 C 14.2 C 0.9 km/h (0 Bft)
09.08.2006 05:00 13.7 C 97 % 1014.1 hPa 0.0 l/m 0.6 km/h (0 Bft) S 0.00 h 0.0 UV-I 0 W/m 13.1 C 13.7 C 1.0 km/h (0 Bft)
09.08.2006 06:00 13.8 C 96 % 1014.3 hPa 0.0 l/m 0.5 km/h (0 Bft) NW 0.00 h 0.0 UV-I 13 W/m 13.2 C 13.8 C 1.4 km/h (1 Bft)
09.08.2006 07:00 14.1 C 93 % 1014.5 hPa 0.0 l/m 2.1 km/h (1 Bft) N-NW 0.00 h 0.5 UV-I 61 W/m 13.0 C 14.1 C 3.8 km/h (1 Bft)
09.08.2006 08:00 15.2 C 87 % 1014.4 hPa 0.0 l/m 1.0 km/h (0 Bft) NW 0.68 h 1.1 UV-I 242 W/m 13.0 C 15.2 C 2.4 km/h (1 Bft)
09.08.2006 09:00 17.1 C 75 % 1014.4 hPa 0.0 l/m 3.4 km/h (1 Bft) O-SO 1.00 h 2.4 UV-I 449 W/m 12.5 C 17.1 C 5.8 km/h (1 Bft)
09.08.2006 10:00 18.3 C 69 % 1014.6 hPa 0.0 l/m 4.7 km/h (1 Bft) O-SO 0.55 h 3.5 UV-I 455 W/m 12.4 C 18.3 C 7.8 km/h (2 Bft)
09.08.2006 11:00 19.1 C 64 % 1014.7 hPa 0.0 l/m 4.3 km/h (1 Bft) SO 0.80 h 4.8 UV-I 530 W/m 12.1 C 19.1 C 7.3 km/h (2 Bft)
09.08.2006 12:00 20.3 C 58 % 1014.4 hPa 0.0 l/m 3.4 km/h (1 Bft) O-SO 0.75 h 6.7 UV-I 717 W/m 11.6 C 20.3 C 6.1 km/h (2 Bft)
09.08.2006 13:00 21.2 C 55 % 1013.9 hPa 0.0 l/m 3.9 km/h (1 Bft) NW 0.63 h 6.4 UV-I 704 W/m 11.9 C 21.2 C 6.6 km/h (2 Bft)
09.08.2006 14:00 21.1 C 53 % 1013.7 hPa 0.0 l/m 3.6 km/h (1 Bft) W-NW 0.43 h 4.4 UV-I 524 W/m 11.1 C 21.1 C 5.9 km/h (2 Bft)
09.08.2006 15:00 20.7 C 54 % 1013.7 hPa 0.0 l/m 3.0 km/h (1 Bft) N-NW 0.05 h 3.0 UV-I 295 W/m 11.1 C 20.7 C 4.7 km/h (1 Bft)
09.08.2006 16:00 20.6 C 54 % 1013.7 hPa 0.0 l/m 0.7 km/h (0 Bft) N-NW 0.22 h 2.3 UV-I 284 W/m 11.0 C 20.6 C 1.9 km/h (1 Bft)
09.08.2006 17:00 21.7 C 51 % 1013.2 hPa 0.0 l/m 2.4 km/h (1 Bft) N 0.50 h 2.0 UV-I 349 W/m 11.2 C 21.7 C 4.4 km/h (1 Bft)
09.08.2006 18:00 20.9 C 56 % 1013.1 hPa 0.0 l/m 1.4 km/h (1 Bft) W 0.38 h 1.0 UV-I 169 W/m 11.7 C 20.9 C 3.2 km/h (1 Bft)
09.08.2006 19:00 21.4 C 56 % 1013.0 hPa 0.0 l/m 1.9 km/h (1 Bft) W 1.00 h 0.6 UV-I 136 W/m 12.1 C 21.4 C 3.4 km/h (1 Bft)
09.08.2006 20:00 19.1 C 69 % 1013.1 hPa 0.0 l/m 0.1 km/h (0 Bft) W 0.08 h 0.0 UV-I 24 W/m 13.1 C 19.1 C 0.7 km/h (0 Bft)
09.08.2006 21:00 16.7 C 75 % 1013.7 hPa 0.0 l/m 3.0 km/h (1 Bft) O-SO 0.00 h 0.0 UV-I 0 W/m 12.3 C 16.7 C 4.6 km/h (1 Bft)
09.08.2006 22:00 15.2 C 81 % 1014.3 hPa 0.0 l/m 1.2 km/h (1 Bft) O 0.00 h 0.0 UV-I 0 W/m 12.0 C 15.2 C 2.3 km/h (1 Bft)
09.08.2006 23:00 14.0 C 87 % 1014.4 hPa 0.0 l/m 2.1 km/h (1 Bft) O 0.00 h 0.0 UV-I 0 W/m 11.8 C 14.0 C 3.1 km/h (1 Bft)
10.08.2006 00:00 13.6 C 87 % 1014.1 hPa 0.0 l/m 3.2 km/h (1 Bft) SO 0.00 h 0.0 UV-I 0 W/m 11.4 C 13.6 C 4.4 km/h (1 Bft)
10.08.2006 01:00 13.2 C 89 % 1013.9 hPa 0.0 l/m 1.6 km/h (1 Bft) O 0.00 h 0.0 UV-I 0 W/m 11.5 C 13.2 C 2.7 km/h (1 Bft)
10.08.2006 02:00 12.8 C 91 % 1013.8 hPa 0.0 l/m 1.8 km/h (1 Bft) O 0.00 h 0.0 UV-I 0 W/m 11.4 C 12.8 C 3.0 km/h (1 Bft)
10.08.2006 03:00 12.0 C 93 % 1013.4 hPa 0.0 l/m 0.8 km/h (0 Bft) O-SO 0.00 h 0.0 UV-I 0 W/m 11.0 C 12.0 C 1.5 km/h (1 Bft)
10.08.2006 04:00 12.1 C 94 % 1013.3 hPa 0.0 l/m 2.8 km/h (1 Bft) O-SO 0.00 h 0.0 UV-I 0 W/m 11.1 C 12.1 C 3.9 km/h (1 Bft)
10.08.2006 05:00 12.6 C 92 % 1013.0 hPa 0.0 l/m 0.0 km/h (0 Bft) N 0.00 h 0.0 UV-I 0 W/m 11.3 C 12.6 C 0.1 km/h (0 Bft)
10.08.2006 06:00 12.7 C 95 % 1013.0 hPa 0.0 l/m 0.0 km/h (0 Bft) N 0.00 h 0.0 UV-I 12 W/m 11.8 C 12.7 C 0.1 km/h (0 Bft)
10.08.2006 07:00 13.3 C 92 % 1013.1 hPa 0.0 l/m 0.4 km/h (0 Bft) O-SO 0.10 h 0.5 UV-I 77 W/m 12.1 C 13.3 C 0.8 km/h (0 Bft)
10.08.2006 08:00 14.3 C 89 % 1013.2 hPa 0.0 l/m 1.1 km/h (0 Bft) O-SO 0.10 h 0.6 UV-I 82 W/m 12.5 C 14.3 C 2.3 km/h (1 Bft)
10.08.2006 09:00 15.1 C 88 % 1013.2 hPa 0.0 l/m 1.3 km/h (1 Bft) O-SO 0.00 h 0.9 UV-I 110 W/m 13.1 C 15.1 C 2.5 km/h (1 Bft)
10.08.2006 10:00 16.6 C 81 % 1013.3 hPa 0.0 l/m 3.8 km/h (1 Bft) W 0.00 h 1.8 UV-I 215 W/m 13.4 C 16.6 C 6.9 km/h (2 Bft)
10.08.2006 11:00 16.9 C 79 % 1013.4 hPa 0.0 l/m 9.9 km/h (2 Bft) W 0.00 h 2.1 UV-I 207 W/m 13.2 C 16.9 C 15.7 km/h (3 Bft)
10.08.2006 12:00 18.5 C 71 % 1013.0 hPa 0.0 l/m 10.0 km/h (2 Bft) W 0.35 h 4.9 UV-I 513 W/m 13.2 C 18.5 C 16.4 km/h (3 Bft)
10.08.2006 13:00 18.9 C 63 % 1012.8 hPa 0.0 l/m 15.9 km/h (3 Bft) W-NW 0.18 h 3.8 UV-I 404 W/m 11.6 C 18.9 C 24.8 km/h (4 Bft)
10.08.2006 14:00 17.4 C 57 % 1013.9 hPa 0.0 l/m 10.3 km/h (2 Bft) N-NW 0.18 h 3.3 UV-I 333 W/m 8.8 C 17.4 C 16.3 km/h (3 Bft)
10.08.2006 15:00 19.0 C 52 % 1013.9 hPa 0.0 l/m 7.2 km/h (2 Bft) W-NW 0.97 h 4.7 UV-I 630 W/m 9.0 C 19.0 C 11.0 km/h (2 Bft)
10.08.2006 16:00 20.6 C 47 % 1013.4 hPa 0.0 l/m 8.4 km/h (2 Bft) W-NW 1.00 h 3.7 UV-I 606 W/m 8.9 C 20.6 C 13.4 km/h (3 Bft)
10.08.2006 17:00 19.6 C 54 % 1013.4 hPa 0.0 l/m 6.6 km/h (2 Bft) W 0.17 h 1.6 UV-I 227 W/m 10.0 C 19.6 C 10.9 km/h (2 Bft)
10.08.2006 18:00 18.3 C 58 % 1013.5 hPa 0.0 l/m 9.6 km/h (2 Bft) W 0.00 h 0.5 UV-I 65 W/m 9.7 C 18.3 C 15.2 km/h (3 Bft)
10.08.2006 19:00 17.6 C 65 % 1013.7 hPa 1.0 l/m 7.3 km/h (2 Bft) W 0.00 h 0.5 UV-I 32 W/m 10.8 C 17.6 C 11.6 km/h (2 Bft)
10.08.2006 20:00 13.8 C 94 % 1014.8 hPa 0.6 l/m 3.2 km/h (1 Bft) O-SO 0.00 h 0.0 UV-I 8 W/m 12.8 C 13.8 C 5.0 km/h (1 Bft)
10.08.2006 21:00 13.7 C 95 % 1015.1 hPa 0.0 l/m 0.2 km/h (0 Bft) O-SO 0.00 h 0.0 UV-I 0 W/m 12.9 C 13.7 C 1.0 km/h (0 Bft)
10.08.2006 22:00 13.5 C 96 % 1015.5 hPa 0.0 l/m 0.4 km/h (0 Bft) O-SO 0.00 h 0.0 UV-I 0 W/m 12.9 C 13.5 C 1.1 km/h (1 Bft)
10.08.2006 23:00 13.2 C 97 % 1015.4 hPa 0.2 l/m 1.0 km/h (0 Bft) O-SO 0.00 h 0.0 UV-I 0 W/m 12.8 C 13.2 C 1.9 km/h (1 Bft)
11.08.2006 00:00 12.7 C 97 % 1015.0 hPa 0.0 l/m 1.0 km/h (0 Bft) O-SO 0.00 h 0.0 UV-I 0 W/m 12.3 C 12.7 C 1.9 km/h (1 Bft)
11.08.2006 01:00 12.5 C 98 % 1014.7 hPa 0.0 l/m 1.3 km/h (1 Bft) O-SO 0.00 h 0.0 UV-I 0 W/m 12.1 C 12.5 C 2.1 km/h (1 Bft)
11.08.2006 02:00 12.6 C 98 % 1014.4 hPa 0.0 l/m 0.5 km/h (0 Bft) O-SO 0.00 h 0.0 UV-I 0 W/m 12.3 C 12.6 C 1.4 km/h (1 Bft)
11.08.2006 03:00 12.6 C 98 % 1014.0 hPa 0.0 l/m 0.7 km/h (0 Bft) N 0.00 h 0.0 UV-I 0 W/m 12.2 C 12.6 C 1.7 km/h (1 Bft)
11.08.2006 04:00 11.9 C 98 % 1013.9 hPa 0.0 l/m 0.8 km/h (0 Bft) N 0.00 h 0.0 UV-I 0 W/m 11.5 C 11.9 C 2.2 km/h (1 Bft)
11.08.2006 05:00 11.5 C 97 % 1013.6 hPa 0.0 l/m 0.7 km/h (0 Bft) N-NW 0.00 h 0.0 UV-I 0 W/m 11.0 C 11.5 C 1.6 km/h (1 Bft)
11.08.2006 06:00 11.7 C 98 % 1013.2 hPa 0.0 l/m 0.2 km/h (0 Bft) N-NW 0.00 h 0.0 UV-I 6 W/m 11.4 C 11.7 C 0.6 km/h (0 Bft)
11.08.2006 07:00 11.9 C 99 % 1013.3 hPa 0.0 l/m 0.5 km/h (0 Bft) N-NW 0.00 h 0.0 UV-I 26 W/m 11.8 C 11.9 C 1.4 km/h (1 Bft)
11.08.2006 08:00 12.3 C 98 % 1013.2 hPa 0.0 l/m 0.1 km/h (0 Bft) N-NW 0.00 h 0.5 UV-I 70 W/m 12.0 C 12.3 C 0.8 km/h (0 Bft)
11.08.2006 09:00 13.2 C 96 % 1013.1 hPa 0.0 l/m 0.3 km/h (0 Bft) O-SO 0.00 h 0.8 UV-I 116 W/m 12.6 C 13.2 C 1.6 km/h (1 Bft)
11.08.2006 10:00 13.8 C 90 % 1012.9 hPa 0.0 l/m 3.5 km/h (1 Bft) W-NW 0.00 h 1.0 UV-I 119 W/m 12.3 C 13.8 C 6.1 km/h (2 Bft)
11.08.2006 11:00 13.7 C 87 % 1013.0 hPa 0.0 l/m 7.0 km/h (2 Bft) W-NW 0.00 h 2.0 UV-I 237 W/m 11.6 C 13.7 C 11.0 km/h (2 Bft)
11.08.2006 12:00 14.3 C 81 % 1012.6 hPa 0.0 l/m 12.4 km/h (3 Bft) W 0.00 h 2.8 UV-I 269 W/m 11.2 C 14.3 C 18.9 km/h (3 Bft)
11.08.2006 13:00 15.6 C 76 % 1012.0 hPa 0.0 l/m 10.3 km/h (2 Bft) W 0.00 h 3.4 UV-I 306 W/m 11.3 C 15.6 C 16.5 km/h (3 Bft)
11.08.2006 14:00 16.3 C 76 % 1011.5 hPa 0.0 l/m 6.2 km/h (2 Bft) W-NW 0.18 h 3.1 UV-I 326 W/m 12.0 C 16.3 C 11.0 km/h (2 Bft)
11.08.2006 15:00 16.7 C 78 % 1011.2 hPa 0.0 l/m 4.3 km/h (1 Bft) W 0.00 h 2.2 UV-I 218 W/m 12.9 C 16.7 C 8.3 km/h (2 Bft)
11.08.2006 16:00 16.8 C 70 % 1011.0 hPa 0.0 l/m 11.8 km/h (2 Bft) W-NW 0.22 h 2.1 UV-I 236 W/m 11.2 C 16.8 C 17.8 km/h (3 Bft)
11.08.2006 17:00 15.0 C 76 % 1011.1 hPa 0.2 l/m 15.0 km/h (3 Bft) W-NW 0.28 h 1.3 UV-I 228 W/m 10.9 C 15.0 C 22.9 km/h (4 Bft)
11.08.2006 18:00 13.5 C 86 % 1011.2 hPa 0.0 l/m 6.6 km/h (2 Bft) W 0.00 h 0.0 UV-I 38 W/m 11.2 C 13.5 C 10.9 km/h (2 Bft)
11.08.2006 19:00 13.1 C 91 % 1011.2 hPa 0.2 l/m 2.0 km/h (1 Bft) W 0.00 h 0.0 UV-I 30 W/m 11.6 C 13.1 C 4.0 km/h (1 Bft)
11.08.2006 20:00 12.8 C 92 % 1011.6 hPa 0.0 l/m 1.5 km/h (1 Bft) S-SO 0.00 h 0.0 UV-I 16 W/m 11.5 C 12.8 C 3.7 km/h (1 Bft)
11.08.2006 21:00 12.3 C 94 % 1012.1 hPa 1.2 l/m 2.2 km/h (1 Bft) W-NW 0.00 h 0.0 UV-I 0 W/m 11.3 C 12.3 C 3.9 km/h (1 Bft)
11.08.2006 22:00 12.0 C 96 % 1011.8 hPa 0.2 l/m 0.7 km/h (0 Bft) S-SW 0.00 h 0.0 UV-I 0 W/m 11.3 C 12.0 C 2.2 km/h (1 Bft)
11.08.2006 23:00 11.7 C 96 % 1011.4 hPa 0.2 l/m 1.0 km/h (0 Bft) SO 0.00 h 0.0 UV-I 0 W/m 11.1 C 11.7 C 2.5 km/h (1 Bft)
12.08.2006 00:00 11.9 C 97 % 1011.0 hPa 0.4 l/m 1.2 km/h (1 Bft) W-SW 0.00 h 0.0 UV-I 0 W/m 11.5 C 11.9 C 3.1 km/h (1 Bft)
12.08.2006 01:00 11.6 C 97 % 1010.8 hPa 0.2 l/m 1.3 km/h (1 Bft) S 0.00 h 0.0 UV-I 0 W/m 11.1 C 11.6 C 3.2 km/h (1 Bft)
12.08.2006 02:00 11.3 C 95 % 1010.5 hPa 0.0 l/m 0.5 km/h (0 Bft) S-SO 0.00 h 0.0 UV-I 0 W/m 10.6 C 11.3 C 1.9 km/h (1 Bft)
12.08.2006 03:00 11.1 C 97 % 1009.9 hPa 0.0 l/m 1.0 km/h (0 Bft) S-SO 0.00 h 0.0 UV-I 0 W/m 10.6 C 11.1 C 3.2 km/h (1 Bft)
12.08.2006 04:00 10.8 C 98 % 1009.7 hPa 0.2 l/m 0.8 km/h (0 Bft) W-SW 0.00 h 0.0 UV-I 0 W/m 10.5 C 10.8 C 2.6 km/h (1 Bft)
12.08.2006 05:00 10.7 C 97 % 1009.6 hPa 0.0 l/m 1.4 km/h (1 Bft) SO 0.00 h 0.0 UV-I 0 W/m 10.2 C 10.7 C 3.1 km/h (1 Bft)
12.08.2006 06:00 10.8 C 97 % 1009.6 hPa 0.0 l/m 0.6 km/h (0 Bft) W 0.00 h 0.0 UV-I 6 W/m 10.3 C 10.8 C 2.1 km/h (1 Bft)
12.08.2006 07:00 11.1 C 96 % 1009.7 hPa 0.0 l/m 0.5 km/h (0 Bft) SO 0.00 h 0.0 UV-I 33 W/m 10.4 C 11.1 C 1.6 km/h (1 Bft)
12.08.2006 08:00 11.3 C 96 % 1009.7 hPa 0.2 l/m 1.6 km/h (1 Bft) SW 0.00 h 0.6 UV-I 63 W/m 10.8 C 11.3 C 4.0 km/h (1 Bft)
12.08.2006 09:00 11.8 C 96 % 1009.7 hPa 0.4 l/m 2.6 km/h (1 Bft) S 0.00 h 0.8 UV-I 109 W/m 11.1 C 11.8 C 6.2 km/h (2 Bft)
12.08.2006 10:00 12.9 C 94 % 1009.5 hPa 0.0 l/m 1.7 km/h (1 Bft) S 0.25 h 2.0 UV-I 318 W/m 11.9 C 12.9 C 3.9 km/h (1 Bft)
12.08.2006 11:00 13.8 C 90 % 1009.2 hPa 0.0 l/m 1.9 km/h (1 Bft) S-SO 0.30 h 3.3 UV-I 429 W/m 12.2 C 13.8 C 4.5 km/h (1 Bft)
12.08.2006 12:00 15.5 C 82 % 1008.8 hPa 0.0 l/m 4.4 km/h (1 Bft) S 0.67 h 4.7 UV-I 596 W/m 12.5 C 15.5 C 8.6 km/h (2 Bft)
12.08.2006 13:00 15.1 C 82 % 1008.4 hPa 0.2 l/m 4.7 km/h (1 Bft) S-SW 0.18 h 3.9 UV-I 418 W/m 12.0 C 15.1 C 9.2 km/h (2 Bft)
12.08.2006 14:00 13.3 C 92 % 1008.5 hPa 2.8 l/m 3.4 km/h (1 Bft) W-NW 0.22 h 2.7 UV-I 319 W/m 12.0 C 13.3 C 6.2 km/h (2 Bft)
12.08.2006 15:00 15.7 C 76 % 1008.0 hPa 0.2 l/m 2.8 km/h (1 Bft) S-SO 0.40 h 3.6 UV-I 496 W/m 11.4 C 15.7 C 6.1 km/h (2 Bft)
12.08.2006 16:00 14.6 C 78 % 1007.9 hPa 0.0 l/m 4.6 km/h (1 Bft) W-NW 0.18 h 1.7 UV-I 232 W/m 10.8 C 14.6 C 7.7 km/h (2 Bft)
12.08.2006 17:00 13.7 C 85 % 1008.1 hPa 1.0 l/m 3.2 km/h (1 Bft) S-SO 0.18 h 1.1 UV-I 177 W/m 11.3 C 13.7 C 6.2 km/h (2 Bft)
12.08.2006 18:00 13.8 C 87 % 1008.4 hPa 0.0 l/m 1.9 km/h (1 Bft) S 0.27 h 0.8 UV-I 169 W/m 11.6 C 13.8 C 4.3 km/h (1 Bft)
12.08.2006 19:00 13.6 C 87 % 1008.0 hPa 0.0 l/m 2.0 km/h (1 Bft) S-SO 0.00 h 0.5 UV-I 61 W/m 11.4 C 13.6 C 4.1 km/h (1 Bft)
12.08.2006 20:00 12.8 C 90 % 1008.4 hPa 0.0 l/m 2.3 km/h (1 Bft) S-SO 0.00 h 0.0 UV-I 19 W/m 11.2 C 12.8 C 4.5 km/h (1 Bft)
12.08.2006 21:00 12.0 C 88 % 1009.2 hPa 0.2 l/m 4.7 km/h (1 Bft) W-NW 0.00 h 0.0 UV-I 0 W/m 10.1 C 12.0 C 7.8 km/h (2 Bft)
12.08.2006 22:00 11.7 C 92 % 1009.3 hPa 0.2 l/m 0.3 km/h (0 Bft) SO 0.00 h 0.0 UV-I 0 W/m 10.4 C 11.7 C 0.9 km/h (0 Bft)
12.08.2006 23:00 11.5 C 94 % 1008.9 hPa 0.0 l/m 0.3 km/h (0 Bft) SO 0.00 h 0.0 UV-I 0 W/m 10.6 C 11.5 C 1.6 km/h (1 Bft)
13.08.2006 00:00 11.5 C 96 % 1008.7 hPa 0.4 l/m 1.2 km/h (1 Bft) S-SO 0.00 h 0.0 UV-I 0 W/m 10.8 C 11.5 C 2.9 km/h (1 Bft)
13.08.2006 01:00 11.0 C 96 % 1008.6 hPa 1.0 l/m 3.1 km/h (1 Bft) S-SO 0.00 h 0.0 UV-I 0 W/m 10.4 C 11.0 C 6.7 km/h (2 Bft)
13.08.2006 02:00 10.9 C 97 % 1008.2 hPa 0.0 l/m 2.1 km/h (1 Bft) S-SO 0.00 h 0.0 UV-I 0 W/m 10.4 C 10.9 C 4.8 km/h (1 Bft)
13.08.2006 03:00 10.9 C 97 % 1007.8 hPa 0.0 l/m 0.1 km/h (0 Bft) S-SO 0.00 h 0.0 UV-I 0 W/m 10.4 C 10.9 C 0.5 km/h (0 Bft)
13.08.2006 04:00 10.9 C 96 % 1007.5 hPa 0.0 l/m 1.0 km/h (0 Bft) S-SO 0.00 h 0.0 UV-I 0 W/m 10.3 C 10.9 C 2.6 km/h (1 Bft)
13.08.2006 05:00 11.2 C 95 % 1007.3 hPa 0.0 l/m 1.9 km/h (1 Bft) S-SO 0.00 h 0.0 UV-I 0 W/m 10.4 C 11.2 C 4.3 km/h (1 Bft)
13.08.2006 06:00 11.4 C 95 % 1006.9 hPa 0.6 l/m 0.2 km/h (0 Bft) SO 0.00 h 0.0 UV-I 7 W/m 10.7 C 11.4 C 0.6 km/h (0 Bft)
13.08.2006 07:00 11.3 C 96 % 1006.9 hPa 2.2 l/m 2.3 km/h (1 Bft) SO 0.00 h 0.0 UV-I 14 W/m 10.7 C 11.3 C 4.1 km/h (1 Bft)
13.08.2006 08:00 11.4 C 95 % 1006.7 hPa 1.6 l/m 4.6 km/h (1 Bft) S-SO 0.00 h 0.0 UV-I 48 W/m 10.7 C 11.4 C 8.7 km/h (2 Bft)
13.08.2006 09:00 11.6 C 97 % 1006.6 hPa 2.0 l/m 2.4 km/h (1 Bft) S-SO 0.00 h 0.6 UV-I 57 W/m 11.1 C 11.6 C 5.1 km/h (1 Bft)
13.08.2006 10:00 11.9 C 96 % 1006.5 hPa 1.6 l/m 3.5 km/h (1 Bft) S-SO 0.00 h 1.2 UV-I 134 W/m 11.3 C 11.9 C 6.6 km/h (2 Bft)
13.08.2006 11:00 12.6 C 94 % 1006.4 hPa 1.0 l/m 6.6 km/h (2 Bft) S-SO 0.00 h 1.7 UV-I 191 W/m 11.6 C 12.6 C 13.5 km/h (3 Bft)
13.08.2006 12:00 12.3 C 95 % 1006.5 hPa 2.0 l/m 7.7 km/h (2 Bft) S 0.00 h 1.8 UV-I 178 W/m 11.4 C 12.3 C 15.6 km/h (3 Bft)
13.08.2006 13:00 12.4 C 95 % 1006.6 hPa 2.2 l/m 6.7 km/h (2 Bft) S-SO 0.00 h 2.0 UV-I 191 W/m 11.6 C 12.4 C 13.9 km/h (3 Bft)
13.08.2006 14:00 12.8 C 96 % 1006.7 hPa 2.0 l/m 5.9 km/h (2 Bft) S-SO 0.00 h 1.8 UV-I 173 W/m 12.2 C 12.8 C 12.3 km/h (3 Bft)
13.08.2006 15:00 13.0 C 96 % 1007.2 hPa 3.0 l/m 5.0 km/h (1 Bft) W-SW 0.00 h 1.3 UV-I 133 W/m 12.4 C 13.0 C 10.1 km/h (2 Bft)
13.08.2006 16:00 13.1 C 97 % 1007.6 hPa 1.8 l/m 4.4 km/h (1 Bft) W-SW 0.00 h 1.1 UV-I 103 W/m 12.6 C 13.1 C 8.7 km/h (2 Bft)
13.08.2006 17:00 12.9 C 96 % 1008.2 hPa 1.0 l/m 4.4 km/h (1 Bft) S 0.00 h 0.7 UV-I 78 W/m 12.3 C 12.9 C 8.7 km/h (2 Bft)
13.08.2006 18:00 12.5 C 97 % 1008.9 hPa 3.2 l/m 4.1 km/h (1 Bft) W-SW 0.00 h 0.0 UV-I 22 W/m 12.0 C 12.5 C 8.7 km/h (2 Bft)
13.08.2006 19:00 12.2 C 97 % 1009.1 hPa 1.4 l/m 3.6 km/h (1 Bft) W-SW 0.00 h 0.0 UV-I 25 W/m 11.7 C 12.2 C 7.2 km/h (2 Bft)
13.08.2006 20:00 12.2 C 94 % 1009.6 hPa 0.0 l/m 3.7 km/h (1 Bft) S-SO 0.00 h 0.0 UV-I 9 W/m 11.3 C 12.2 C 7.4 km/h (2 Bft)
13.08.2006 21:00 12.0 C 94 % 1010.2 hPa 0.0 l/m 2.7 km/h (1 Bft) S-SO 0.00 h 0.0 UV-I 0 W/m 11.1 C 12.0 C 6.0 km/h (2 Bft)
13.08.2006 22:00 12.0 C 92 % 1010.3 hPa 0.0 l/m 0.6 km/h (0 Bft) SW 0.00 h 0.0 UV-I 0 W/m 10.8 C 12.0 C 2.3 km/h (1 Bft)
13.08.2006 23:00 12.1 C 92 % 1010.2 hPa 0.0 l/m 1.9 km/h (1 Bft) S 0.00 h 0.0 UV-I 0 W/m 10.7 C 12.1 C 4.1 km/h (1 Bft)
Min-Datum _ 12.08.06 10.08.06 13.08.06 - 07.08.06 - - - - 10.08.06 12.08.06 07.08.06
_ Min-Zeit 05:05 16:08 11:30 - 00:21 - - - - 16:11 05:05 00:24
Minimum _ 10.6 C 43 % 1006.3 hPa - 0.0 km/h (0 Bft) - - - - 6.9 C 10.6 C 0.0 km/h (0 Bft)
Max-Datum _ 07.08.06 11.08.06 07.08.06 13.08.06 10.08.06 - 07.08.06 10.08.06 10.08.06 07.08.06 07.08.06 10.08.06
_ Max-Zeit 16:11 07:04 00:00 18:22 13:32 - 10:45 13:21 13:21 15:29 16:11 13:24
Maximum _ 25.1 C 99 % 1019.3 hPa 3.2 l/m 27.8 km/h
W-NW (4 Bft)
- 0.02 h 8.5 UV-I 1204 W/m 17.9 C 25.1 C 45.1 km/h
W-NW (6 Bft)
Durchschnitt _ 15.2 C 84 % 1012.6 hPa #37.2 l/m 3.1 km/h (1 Bft) S-SO #26:33 h 2.5 UV-I 241 W/m 12.2 C 15.2 C 5.7 km/h (1 Bft)
© Kaiko 2006